sensor_id;sensor_type;location;lat;lon;timestamp;P1;durP1;ratioP1;P2;durP2;ratioP2
56599;SDS011;51832;48.152;11.530;2022-08-20T00:01:28;14.03;;;9.97;;
56599;SDS011;51832;48.152;11.530;2022-08-20T00:06:28;13.20;;;10.37;;
56599;SDS011;51832;48.152;11.530;2022-08-20T00:11:28;14.77;;;10.60;;
56599;SDS011;51832;48.152;11.530;2022-08-20T00:16:31;15.63;;;10.67;;
56599;SDS011;51832;48.152;11.530;2022-08-20T00:21:33;16.75;;;11.77;;
56599;SDS011;51832;48.152;11.530;2022-08-20T00:26:35;15.48;;;10.52;;
56599;SDS011;51832;48.152;11.530;2022-08-20T00:31:35;16.90;;;11.53;;
56599;SDS011;51832;48.152;11.530;2022-08-20T00:36:36;15.87;;;11.53;;
56599;SDS011;51832;48.152;11.530;2022-08-20T00:41:36;16.35;;;11.98;;
56599;SDS011;51832;48.152;11.530;2022-08-20T00:46:37;15.82;;;11.60;;
56599;SDS011;51832;48.152;11.530;2022-08-20T00:51:40;19.73;;;14.15;;
56599;SDS011;51832;48.152;11.530;2022-08-20T00:56:45;20.05;;;14.38;;
56599;SDS011;51832;48.152;11.530;2022-08-20T01:01:48;20.55;;;14.70;;
56599;SDS011;51832;48.152;11.530;2022-08-20T01:06:50;20.60;;;13.98;;
56599;SDS011;51832;48.152;11.530;2022-08-20T01:11:52;21.15;;;14.43;;
56599;SDS011;51832;48.152;11.530;2022-08-20T01:16:54;20.83;;;14.03;;
56599;SDS011;51832;48.152;11.530;2022-08-20T01:21:59;20.52;;;14.88;;
56599;SDS011;51832;48.152;11.530;2022-08-20T01:27:21;22.75;;;14.57;;
56599;SDS011;51832;48.152;11.530;2022-08-20T01:32:23;21.90;;;14.32;;
56599;SDS011;51832;48.152;11.530;2022-08-20T01:37:23;21.10;;;14.95;;
56599;SDS011;51832;48.152;11.530;2022-08-20T01:47:35;22.75;;;15.15;;
56599;SDS011;51832;48.152;11.530;2022-08-20T01:52:47;23.45;;;15.32;;
56599;SDS011;51832;48.152;11.530;2022-08-20T01:57:49;26.52;;;15.85;;
56599;SDS011;51832;48.152;11.530;2022-08-20T02:02:50;24.42;;;16.50;;
56599;SDS011;51832;48.152;11.530;2022-08-20T02:07:50;27.85;;;17.10;;
56599;SDS011;51832;48.152;11.530;2022-08-20T02:12:51;26.60;;;16.67;;
56599;SDS011;51832;48.152;11.530;2022-08-20T02:17:51;27.05;;;15.98;;
56599;SDS011;51832;48.152;11.530;2022-08-20T02:22:53;26.70;;;17.93;;
56599;SDS011;51832;48.152;11.530;2022-08-20T02:27:56;27.20;;;17.27;;
56599;SDS011;51832;48.152;11.530;2022-08-20T02:33:00;26.80;;;17.30;;
56599;SDS011;51832;48.152;11.530;2022-08-20T02:38:02;27.70;;;18.10;;
56599;SDS011;51832;48.152;11.530;2022-08-20T02:43:03;30.52;;;17.45;;
56599;SDS011;51832;48.152;11.530;2022-08-20T02:48:04;27.77;;;16.88;;
56599;SDS011;51832;48.152;11.530;2022-08-20T02:53:04;27.67;;;17.60;;
56599;SDS011;51832;48.152;11.530;2022-08-20T02:58:05;29.13;;;17.33;;
56599;SDS011;51832;48.152;11.530;2022-08-20T03:03:06;25.83;;;17.20;;
56599;SDS011;51832;48.152;11.530;2022-08-20T03:08:09;26.30;;;17.10;;
56599;SDS011;51832;48.152;11.530;2022-08-20T03:13:11;30.13;;;18.08;;
56599;SDS011;51832;48.152;11.530;2022-08-20T03:18:13;25.63;;;17.40;;
56599;SDS011;51832;48.152;11.530;2022-08-20T03:23:15;30.23;;;18.10;;
56599;SDS011;51832;48.152;11.530;2022-08-20T03:28:17;26.17;;;16.98;;
56599;SDS011;51832;48.152;11.530;2022-08-20T03:33:18;26.20;;;16.88;;
56599;SDS011;51832;48.152;11.530;2022-08-20T03:38:21;28.02;;;17.00;;
56599;SDS011;51832;48.152;11.530;2022-08-20T03:48:23;25.27;;;15.88;;
56599;SDS011;51832;48.152;11.530;2022-08-20T03:53:24;26.10;;;16.98;;
56599;SDS011;51832;48.152;11.530;2022-08-20T03:58:24;27.17;;;16.67;;
56599;SDS011;51832;48.152;11.530;2022-08-20T04:03:27;27.95;;;17.83;;
56599;SDS011;51832;48.152;11.530;2022-08-20T04:08:28;25.23;;;16.02;;
56599;SDS011;51832;48.152;11.530;2022-08-20T04:13:29;30.38;;;18.23;;
56599;SDS011;51832;48.152;11.530;2022-08-20T04:18:30;27.38;;;16.67;;
56599;SDS011;51832;48.152;11.530;2022-08-20T04:23:31;25.98;;;16.83;;
56599;SDS011;51832;48.152;11.530;2022-08-20T04:28:31;26.35;;;17.10;;
56599;SDS011;51832;48.152;11.530;2022-08-20T04:33:32;27.05;;;15.57;;
56599;SDS011;51832;48.152;11.530;2022-08-20T04:38:33;25.50;;;16.70;;
56599;SDS011;51832;48.152;11.530;2022-08-20T04:43:35;27.52;;;17.25;;
56599;SDS011;51832;48.152;11.530;2022-08-20T04:48:38;25.30;;;15.70;;
56599;SDS011;51832;48.152;11.530;2022-08-20T04:53:40;22.38;;;15.63;;
56599;SDS011;51832;48.152;11.530;2022-08-20T04:58:41;28.27;;;16.15;;
56599;SDS011;51832;48.152;11.530;2022-08-20T05:03:46;22.17;;;15.02;;
56599;SDS011;51832;48.152;11.530;2022-08-20T05:08:47;23.80;;;16.13;;
56599;SDS011;51832;48.152;11.530;2022-08-20T05:13:48;25.90;;;16.00;;
56599;SDS011;51832;48.152;11.530;2022-08-20T05:18:49;25.60;;;15.27;;
56599;SDS011;51832;48.152;11.530;2022-08-20T05:23:50;23.45;;;15.55;;
56599;SDS011;51832;48.152;11.530;2022-08-20T05:28:51;24.15;;;15.27;;
56599;SDS011;51832;48.152;11.530;2022-08-20T05:33:51;22.50;;;15.23;;
56599;SDS011;51832;48.152;11.530;2022-08-20T05:38:54;24.45;;;15.63;;
56599;SDS011;51832;48.152;11.530;2022-08-20T05:43:55;22.02;;;14.25;;
56599;SDS011;51832;48.152;11.530;2022-08-20T05:48:58;24.75;;;16.00;;
56599;SDS011;51832;48.152;11.530;2022-08-20T05:54:00;23.40;;;15.27;;
56599;SDS011;51832;48.152;11.530;2022-08-20T05:59:00;23.48;;;15.60;;
56599;SDS011;51832;48.152;11.530;2022-08-20T06:04:05;21.77;;;15.45;;
56599;SDS011;51832;48.152;11.530;2022-08-20T06:09:26;23.53;;;14.00;;
56599;SDS011;51832;48.152;11.530;2022-08-20T06:14:28;22.52;;;14.15;;
56599;SDS011;51832;48.152;11.530;2022-08-20T06:19:29;21.20;;;14.80;;
56599;SDS011;51832;48.152;11.530;2022-08-20T06:24:29;23.17;;;14.53;;
56599;SDS011;51832;48.152;11.530;2022-08-20T06:29:30;19.80;;;13.38;;
56599;SDS011;51832;48.152;11.530;2022-08-20T06:34:34;19.08;;;13.27;;
56599;SDS011;51832;48.152;11.530;2022-08-20T06:39:35;19.83;;;13.02;;
56599;SDS011;51832;48.152;11.530;2022-08-20T06:44:36;21.63;;;13.37;;
56599;SDS011;51832;48.152;11.530;2022-08-20T06:49:36;18.67;;;12.40;;
56599;SDS011;51832;48.152;11.530;2022-08-20T06:54:36;18.03;;;12.37;;
56599;SDS011;51832;48.152;11.530;2022-08-20T06:59:37;17.43;;;11.70;;
56599;SDS011;51832;48.152;11.530;2022-08-20T07:04:37;16.25;;;12.45;;
56599;SDS011;51832;48.152;11.530;2022-08-20T07:09:38;16.63;;;11.60;;
56599;SDS011;51832;48.152;11.530;2022-08-20T07:14:38;16.90;;;11.60;;
56599;SDS011;51832;48.152;11.530;2022-08-20T07:19:38;15.80;;;11.82;;
56599;SDS011;51832;48.152;11.530;2022-08-20T07:24:39;16.15;;;10.57;;
56599;SDS011;51832;48.152;11.530;2022-08-20T07:29:39;15.98;;;11.32;;
56599;SDS011;51832;48.152;11.530;2022-08-20T07:34:58;14.95;;;10.75;;
56599;SDS011;51832;48.152;11.530;2022-08-20T07:40:00;16.88;;;10.63;;
56599;SDS011;51832;48.152;11.530;2022-08-20T07:45:00;13.70;;;10.18;;
56599;SDS011;51832;48.152;11.530;2022-08-20T07:50:01;14.88;;;10.05;;
56599;SDS011;51832;48.152;11.530;2022-08-20T07:55:03;15.15;;;10.45;;
56599;SDS011;51832;48.152;11.530;2022-08-20T08:00:07;13.63;;;10.50;;
56599;SDS011;51832;48.152;11.530;2022-08-20T08:05:09;14.63;;;11.27;;
56599;SDS011;51832;48.152;11.530;2022-08-20T08:10:11;13.10;;;9.52;;
56599;SDS011;51832;48.152;11.530;2022-08-20T08:15:16;11.88;;;9.93;;
56599;SDS011;51832;48.152;11.530;2022-08-20T08:20:21;12.68;;;10.25;;
56599;SDS011;51832;48.152;11.530;2022-08-20T08:25:22;13.63;;;9.75;;
56599;SDS011;51832;48.152;11.530;2022-08-20T08:30:22;13.50;;;9.90;;
56599;SDS011;51832;48.152;11.530;2022-08-20T08:35:23;11.80;;;8.38;;
56599;SDS011;51832;48.152;11.530;2022-08-20T08:40:25;11.80;;;9.15;;
56599;SDS011;51832;48.152;11.530;2022-08-20T08:45:32;12.20;;;9.93;;
56599;SDS011;51832;48.152;11.530;2022-08-20T08:50:40;20.33;;;12.63;;
56599;SDS011;51832;48.152;11.530;2022-08-20T08:55:41;13.05;;;9.75;;
56599;SDS011;51832;48.152;11.530;2022-08-20T09:00:42;14.05;;;9.82;;
56599;SDS011;51832;48.152;11.530;2022-08-20T09:05:46;18.50;;;13.55;;
56599;SDS011;51832;48.152;11.530;2022-08-20T09:10:49;16.23;;;12.75;;
56599;SDS011;51832;48.152;11.530;2022-08-20T09:15:50;16.73;;;11.00;;
56599;SDS011;51832;48.152;11.530;2022-08-20T09:20:51;13.05;;;10.23;;
56599;SDS011;51832;48.152;11.530;2022-08-20T09:25:51;22.98;;;15.90;;
56599;SDS011;51832;48.152;11.530;2022-08-20T09:30:52;11.63;;;9.95;;
56599;SDS011;51832;48.152;11.530;2022-08-20T09:35:52;12.85;;;10.45;;
56599;SDS011;51832;48.152;11.530;2022-08-20T09:40:53;13.88;;;10.80;;
56599;SDS011;51832;48.152;11.530;2022-08-20T09:45:53;13.70;;;10.35;;
56599;SDS011;51832;48.152;11.530;2022-08-20T09:50:54;15.48;;;11.32;;
56599;SDS011;51832;48.152;11.530;2022-08-20T09:55:55;17.83;;;14.75;;
56599;SDS011;51832;48.152;11.530;2022-08-20T10:00:58;15.13;;;11.63;;
56599;SDS011;51832;48.152;11.530;2022-08-20T10:06:07;12.85;;;11.55;;
56599;SDS011;51832;48.152;11.530;2022-08-20T10:11:07;14.50;;;11.15;;
56599;SDS011;51832;48.152;11.530;2022-08-20T10:16:08;13.85;;;12.07;;
56599;SDS011;51832;48.152;11.530;2022-08-20T10:21:11;13.25;;;11.85;;
56599;SDS011;51832;48.152;11.530;2022-08-20T10:26:12;14.10;;;11.70;;
56599;SDS011;51832;48.152;11.530;2022-08-20T10:31:14;14.77;;;12.43;;
56599;SDS011;51832;48.152;11.530;2022-08-20T10:36:15;16.85;;;13.65;;
56599;SDS011;51832;48.152;11.530;2022-08-20T10:41:16;15.05;;;12.93;;
56599;SDS011;51832;48.152;11.530;2022-08-20T10:46:18;12.40;;;11.10;;
56599;SDS011;51832;48.152;11.530;2022-08-20T10:51:19;13.63;;;11.15;;
56599;SDS011;51832;48.152;11.530;2022-08-20T10:56:19;14.07;;;11.75;;
56599;SDS011;51832;48.152;11.530;2022-08-20T11:01:20;12.95;;;11.32;;
56599;SDS011;51832;48.152;11.530;2022-08-20T11:06:20;14.60;;;11.85;;
56599;SDS011;51832;48.152;11.530;2022-08-20T11:11:21;16.13;;;13.13;;
56599;SDS011;51832;48.152;11.530;2022-08-20T11:16:22;13.80;;;12.20;;
56599;SDS011;51832;48.152;11.530;2022-08-20T11:21:22;14.85;;;12.77;;
56599;SDS011;51832;48.152;11.530;2022-08-20T11:26:25;16.73;;;12.25;;
56599;SDS011;51832;48.152;11.530;2022-08-20T11:31:26;14.10;;;12.45;;
56599;SDS011;51832;48.152;11.530;2022-08-20T11:36:26;13.40;;;11.77;;
56599;SDS011;51832;48.152;11.530;2022-08-20T11:41:30;12.93;;;11.52;;
56599;SDS011;51832;48.152;11.530;2022-08-20T11:46:30;13.10;;;10.25;;
56599;SDS011;51832;48.152;11.530;2022-08-20T11:51:34;15.15;;;11.93;;
56599;SDS011;51832;48.152;11.530;2022-08-20T11:56:36;15.10;;;13.27;;
56599;SDS011;51832;48.152;11.530;2022-08-20T12:01:36;11.93;;;10.35;;
56599;SDS011;51832;48.152;11.530;2022-08-20T12:06:37;14.65;;;12.77;;
56599;SDS011;51832;48.152;11.530;2022-08-20T12:11:37;11.65;;;8.90;;
56599;SDS011;51832;48.152;11.530;2022-08-20T12:16:38;8.70;;;7.93;;
56599;SDS011;51832;48.152;11.530;2022-08-20T12:21:38;8.45;;;7.43;;
56599;SDS011;51832;48.152;11.530;2022-08-20T12:26:39;8.02;;;7.15;;
56599;SDS011;51832;48.152;11.530;2022-08-20T12:31:39;7.28;;;6.55;;
56599;SDS011;51832;48.152;11.530;2022-08-20T12:36:40;10.55;;;8.05;;
56599;SDS011;51832;48.152;11.530;2022-08-20T12:41:40;8.50;;;7.70;;
56599;SDS011;51832;48.152;11.530;2022-08-20T12:46:41;10.25;;;8.80;;
56599;SDS011;51832;48.152;11.530;2022-08-20T12:51:41;10.18;;;8.68;;
56599;SDS011;51832;48.152;11.530;2022-08-20T12:56:42;10.88;;;9.35;;
56599;SDS011;51832;48.152;11.530;2022-08-20T13:01:42;10.05;;;8.85;;
56599;SDS011;51832;48.152;11.530;2022-08-20T13:06:43;10.35;;;8.43;;
56599;SDS011;51832;48.152;11.530;2022-08-20T13:11:43;9.80;;;8.32;;
56599;SDS011;51832;48.152;11.530;2022-08-20T13:16:44;10.57;;;8.45;;
56599;SDS011;51832;48.152;11.530;2022-08-20T13:21:44;10.07;;;9.00;;
56599;SDS011;51832;48.152;11.530;2022-08-20T13:26:45;12.50;;;9.73;;
56599;SDS011;51832;48.152;11.530;2022-08-20T13:31:45;10.15;;;9.05;;
56599;SDS011;51832;48.152;11.530;2022-08-20T13:36:46;10.40;;;8.77;;
56599;SDS011;51832;48.152;11.530;2022-08-20T13:41:46;9.23;;;8.32;;
56599;SDS011;51832;48.152;11.530;2022-08-20T13:46:47;11.13;;;9.30;;
56599;SDS011;51832;48.152;11.530;2022-08-20T13:51:48;11.55;;;9.60;;
56599;SDS011;51832;48.152;11.530;2022-08-20T13:56:48;9.40;;;8.37;;
56599;SDS011;51832;48.152;11.530;2022-08-20T14:01:48;9.30;;;8.27;;
56599;SDS011;51832;48.152;11.530;2022-08-20T14:06:49;3.13;;;2.60;;
56599;SDS011;51832;48.152;11.530;2022-08-20T14:11:49;2.10;;;1.90;;
56599;SDS011;51832;48.152;11.530;2022-08-20T14:16:50;2.30;;;2.10;;
56599;SDS011;51832;48.152;11.530;2022-08-20T14:21:50;2.03;;;1.83;;
56599;SDS011;51832;48.152;11.530;2022-08-20T14:26:51;3.05;;;2.30;;
56599;SDS011;51832;48.152;11.530;2022-08-20T14:31:51;2.93;;;2.10;;
56599;SDS011;51832;48.152;11.530;2022-08-20T14:36:52;5.47;;;2.70;;
56599;SDS011;51832;48.152;11.530;2022-08-20T14:41:52;5.03;;;2.58;;
56599;SDS011;51832;48.152;11.530;2022-08-20T14:46:53;2.72;;;2.50;;
56599;SDS011;51832;48.152;11.530;2022-08-20T14:51:53;3.13;;;2.40;;
56599;SDS011;51832;48.152;11.530;2022-08-20T14:56:56;3.23;;;2.70;;
56599;SDS011;51832;48.152;11.530;2022-08-20T15:01:57;3.70;;;2.25;;
56599;SDS011;51832;48.152;11.530;2022-08-20T15:06:58;2.78;;;2.53;;
56599;SDS011;51832;48.152;11.530;2022-08-20T15:12:00;3.70;;;2.85;;
56599;SDS011;51832;48.152;11.530;2022-08-20T15:17:00;3.40;;;3.10;;
56599;SDS011;51832;48.152;11.530;2022-08-20T15:22:01;2.53;;;1.80;;
56599;SDS011;51832;48.152;11.530;2022-08-20T15:32:11;2.90;;;1.90;;
56599;SDS011;51832;48.152;11.530;2022-08-20T15:37:20;1.60;;;1.35;;
56599;SDS011;51832;48.152;11.530;2022-08-20T15:42:21;2.45;;;1.55;;
56599;SDS011;51832;48.152;11.530;2022-08-20T15:47:24;1.77;;;1.58;;
56599;SDS011;51832;48.152;11.530;2022-08-20T15:52:30;3.30;;;1.92;;
56599;SDS011;51832;48.152;11.530;2022-08-20T16:13:52;2.35;;;2.15;;
56599;SDS011;51832;48.152;11.530;2022-08-20T16:18:55;3.22;;;2.42;;
56599;SDS011;51832;48.152;11.530;2022-08-20T16:23:55;2.50;;;2.30;;
56599;SDS011;51832;48.152;11.530;2022-08-20T16:39:34;2.67;;;1.90;;
56599;SDS011;51832;48.152;11.530;2022-08-20T16:44:43;5.80;;;3.33;;
56599;SDS011;51832;48.152;11.530;2022-08-20T16:54:58;3.88;;;2.50;;
56599;SDS011;51832;48.152;11.530;2022-08-20T17:05:28;3.28;;;2.88;;
56599;SDS011;51832;48.152;11.530;2022-08-20T17:10:55;2.80;;;2.38;;
56599;SDS011;51832;48.152;11.530;2022-08-20T17:15:57;2.00;;;1.77;;
56599;SDS011;51832;48.152;11.530;2022-08-20T17:21:32;2.72;;;2.25;;
56599;SDS011;51832;48.152;11.530;2022-08-20T17:26:31;2.97;;;2.20;;
56599;SDS011;51832;48.152;11.530;2022-08-20T17:31:35;3.80;;;2.20;;
56599;SDS011;51832;48.152;11.530;2022-08-20T17:41:47;3.67;;;2.90;;
56599;SDS011;51832;48.152;11.530;2022-08-20T17:46:50;4.22;;;3.00;;
56599;SDS011;51832;48.152;11.530;2022-08-20T17:51:53;3.05;;;2.70;;
56599;SDS011;51832;48.152;11.530;2022-08-20T17:56:57;3.22;;;2.50;;
56599;SDS011;51832;48.152;11.530;2022-08-20T18:02:00;3.03;;;2.60;;
56599;SDS011;51832;48.152;11.530;2022-08-20T18:07:07;2.60;;;2.40;;
56599;SDS011;51832;48.152;11.530;2022-08-20T18:17:45;3.03;;;2.50;;
56599;SDS011;51832;48.152;11.530;2022-08-20T18:23:15;3.72;;;2.80;;
56599;SDS011;51832;48.152;11.530;2022-08-20T18:33:33;5.53;;;4.47;;
56599;SDS011;51832;48.152;11.530;2022-08-20T18:38:41;4.72;;;3.47;;
56599;SDS011;51832;48.152;11.530;2022-08-20T18:43:41;4.03;;;3.58;;
56599;SDS011;51832;48.152;11.530;2022-08-20T18:48:53;4.47;;;3.95;;
56599;SDS011;51832;48.152;11.530;2022-08-20T18:53:58;4.95;;;3.90;;
56599;SDS011;51832;48.152;11.530;2022-08-20T18:59:04;4.88;;;3.78;;
56599;SDS011;51832;48.152;11.530;2022-08-20T19:14:57;4.28;;;3.85;;
56599;SDS011;51832;48.152;11.530;2022-08-20T19:20:02;4.40;;;3.22;;
56599;SDS011;51832;48.152;11.530;2022-08-20T19:25:06;3.67;;;3.30;;
56599;SDS011;51832;48.152;11.530;2022-08-20T19:30:08;3.72;;;3.10;;
56599;SDS011;51832;48.152;11.530;2022-08-20T19:35:08;5.07;;;3.42;;
56599;SDS011;51832;48.152;11.530;2022-08-20T19:40:21;4.75;;;3.78;;
56599;SDS011;51832;48.152;11.530;2022-08-20T19:55:59;4.72;;;3.30;;
56599;SDS011;51832;48.152;11.530;2022-08-20T20:01:01;4.20;;;2.67;;
56599;SDS011;51832;48.152;11.530;2022-08-20T20:06:14;4.40;;;3.08;;
56599;SDS011;51832;48.152;11.530;2022-08-20T20:11:20;4.22;;;3.10;;
56599;SDS011;51832;48.152;11.530;2022-08-20T20:16:25;4.03;;;2.58;;
56599;SDS011;51832;48.152;11.530;2022-08-20T20:21:37;4.30;;;3.10;;
56599;SDS011;51832;48.152;11.530;2022-08-20T20:26:40;3.45;;;3.03;;
56599;SDS011;51832;48.152;11.530;2022-08-20T20:37:07;4.38;;;3.33;;
56599;SDS011;51832;48.152;11.530;2022-08-20T20:42:24;3.20;;;2.53;;
56599;SDS011;51832;48.152;11.530;2022-08-20T20:47:28;3.45;;;2.75;;
56599;SDS011;51832;48.152;11.530;2022-08-20T20:52:36;3.05;;;2.40;;
56599;SDS011;51832;48.152;11.530;2022-08-20T20:57:54;4.22;;;2.33;;
56599;SDS011;51832;48.152;11.530;2022-08-20T21:02:55;2.65;;;2.45;;
56599;SDS011;51832;48.152;11.530;2022-08-20T21:08:00;2.72;;;2.30;;
56599;SDS011;51832;48.152;11.530;2022-08-20T21:13:03;2.58;;;2.38;;
56599;SDS011;51832;48.152;11.530;2022-08-20T21:18:07;2.17;;;1.98;;
56599;SDS011;51832;48.152;11.530;2022-08-20T21:23:08;3.08;;;2.20;;
56599;SDS011;51832;48.152;11.530;2022-08-20T21:28:08;2.78;;;2.20;;
56599;SDS011;51832;48.152;11.530;2022-08-20T21:33:09;3.92;;;2.20;;
56599;SDS011;51832;48.152;11.530;2022-08-20T21:38:09;3.37;;;2.20;;
56599;SDS011;51832;48.152;11.530;2022-08-20T21:43:10;4.10;;;1.60;;
56599;SDS011;51832;48.152;11.530;2022-08-20T21:48:10;1.83;;;1.70;;
56599;SDS011;51832;48.152;11.530;2022-08-20T21:53:11;1.77;;;1.60;;
56599;SDS011;51832;48.152;11.530;2022-08-20T21:58:12;2.72;;;1.73;;
56599;SDS011;51832;48.152;11.530;2022-08-20T22:03:13;2.53;;;1.70;;
56599;SDS011;51832;48.152;11.530;2022-08-20T22:08:15;1.90;;;1.80;;
56599;SDS011;51832;48.152;11.530;2022-08-20T22:13:16;4.32;;;1.88;;
56599;SDS011;51832;48.152;11.530;2022-08-20T22:18:16;1.77;;;1.63;;
56599;SDS011;51832;48.152;11.530;2022-08-20T22:23:17;2.05;;;1.90;;
56599;SDS011;51832;48.152;11.530;2022-08-20T22:28:17;2.05;;;1.85;;
56599;SDS011;51832;48.152;11.530;2022-08-20T22:33:20;2.63;;;2.20;;
56599;SDS011;51832;48.152;11.530;2022-08-20T22:38:21;2.00;;;1.80;;
56599;SDS011;51832;48.152;11.530;2022-08-20T22:43:23;2.47;;;2.08;;
56599;SDS011;51832;48.152;11.530;2022-08-20T22:48:24;2.55;;;1.92;;
56599;SDS011;51832;48.152;11.530;2022-08-20T22:53:25;3.80;;;2.00;;
56599;SDS011;51832;48.152;11.530;2022-08-20T22:58:26;2.55;;;2.00;;
56599;SDS011;51832;48.152;11.530;2022-08-20T23:03:26;1.87;;;1.70;;
56599;SDS011;51832;48.152;11.530;2022-08-20T23:08:28;1.95;;;1.80;;
56599;SDS011;51832;48.152;11.530;2022-08-20T23:13:28;3.53;;;1.88;;
56599;SDS011;51832;48.152;11.530;2022-08-20T23:18:29;1.60;;;1.50;;
56599;SDS011;51832;48.152;11.530;2022-08-20T23:23:30;2.03;;;1.83;;
56599;SDS011;51832;48.152;11.530;2022-08-20T23:28:30;1.83;;;1.73;;
56599;SDS011;51832;48.152;11.530;2022-08-20T23:33:31;2.53;;;2.03;;
56599;SDS011;51832;48.152;11.530;2022-08-20T23:38:32;4.67;;;2.00;;
56599;SDS011;51832;48.152;11.530;2022-08-20T23:43:32;2.00;;;1.77;;
56599;SDS011;51832;48.152;11.530;2022-08-20T23:48:33;3.30;;;1.70;;
56599;SDS011;51832;48.152;11.530;2022-08-20T23:53:34;2.25;;;2.00;;
56599;SDS011;51832;48.152;11.530;2022-08-20T23:58:36;1.98;;;1.65;;
